createdAt,value
2023-05-22T00:01:56.856Z,3.50
2023-05-22T00:04:24.013Z,2.70
2023-05-22T00:06:50.993Z,2.80
2023-05-22T00:09:18.177Z,2.50
2023-05-22T00:11:47.421Z,2.60
2023-05-22T00:14:14.499Z,2.30
2023-05-22T00:16:41.475Z,3.20
2023-05-22T00:19:16.785Z,2.70
2023-05-22T00:21:44.513Z,2.50
2023-05-22T00:24:11.490Z,2.60
2023-05-22T00:26:38.370Z,2.50
2023-05-22T00:29:08.279Z,2.70
2023-05-22T00:31:35.535Z,2.90
2023-05-22T00:34:02.495Z,3.00
2023-05-22T00:36:29.470Z,3.10
2023-05-22T00:38:56.573Z,2.70
2023-05-22T00:41:23.441Z,2.70
2023-05-22T00:43:51.450Z,2.50
2023-05-22T00:46:23.039Z,2.60
2023-05-22T00:48:50.185Z,2.90
2023-05-22T00:51:17.136Z,2.30
2023-05-22T00:53:44.490Z,2.40
2023-05-22T00:56:12.455Z,2.40
2023-05-22T00:58:39.402Z,2.40
2023-05-22T01:01:07.851Z,2.70
2023-05-22T01:03:35.936Z,2.40
2023-05-22T01:06:03.574Z,2.50
2023-05-22T01:08:30.613Z,2.50
2023-05-22T01:11:02.244Z,2.20
2023-05-22T01:13:34.757Z,2.70
2023-05-22T01:16:25.700Z,2.40
2023-05-22T01:19:10.866Z,2.40
2023-05-22T01:21:46.266Z,2.30
2023-05-22T01:24:31.557Z,2.60
2023-05-22T01:27:01.610Z,2.40
2023-05-22T01:29:52.992Z,2.60
2023-05-22T01:32:23.531Z,2.40
2023-05-22T01:34:53.553Z,2.40
2023-05-22T01:37:24.486Z,2.80
2023-05-22T01:39:52.564Z,3.10
2023-05-22T01:42:19.598Z,2.50
2023-05-22T01:44:48.379Z,2.60
2023-05-22T01:47:15.863Z,2.60
2023-05-22T01:49:43.037Z,2.20
2023-05-22T01:52:15.973Z,2.60
2023-05-22T01:54:50.412Z,2.20
2023-05-22T01:57:42.413Z,2.70
2023-05-22T02:00:10.905Z,2.90
2023-05-22T02:02:47.041Z,3.00
2023-05-22T02:05:14.041Z,2.60
2023-05-22T02:07:42.062Z,3.10
2023-05-22T02:10:10.436Z,2.40
2023-05-22T02:12:37.897Z,2.90
2023-05-22T02:15:06.203Z,2.30
2023-05-22T02:17:40.596Z,2.90
2023-05-22T02:20:17.020Z,2.70
2023-05-22T02:22:45.347Z,3.00
2023-05-22T02:25:17.407Z,2.80
2023-05-22T02:27:47.150Z,2.90
2023-05-22T02:30:14.403Z,2.70
2023-05-22T02:32:41.812Z,3.20
2023-05-22T02:35:09.233Z,2.60
2023-05-22T02:37:36.379Z,2.70
2023-05-22T02:40:06.248Z,2.50
2023-05-22T02:42:33.399Z,2.50
2023-05-22T02:45:00.669Z,2.90
2023-05-22T02:47:27.694Z,2.50
2023-05-22T02:49:54.854Z,2.10
2023-05-22T02:52:22.639Z,2.30
2023-05-22T02:54:49.611Z,2.20
2023-05-22T02:57:16.518Z,2.90
2023-05-22T03:02:54.653Z,2.40
2023-05-22T03:05:21.648Z,3.10
2023-05-22T03:07:49.316Z,2.70
2023-05-22T03:10:17.245Z,2.70
2023-05-22T03:12:44.165Z,2.80
2023-05-22T03:15:11.597Z,3.00
2023-05-22T03:17:39.385Z,2.70
2023-05-22T03:20:08.838Z,2.90
2023-05-22T03:22:36.207Z,3.30
2023-05-22T03:25:04.163Z,3.00
2023-05-22T03:27:31.155Z,3.60
2023-05-22T03:29:58.330Z,3.70
2023-05-22T03:32:25.543Z,3.30
2023-05-22T03:34:52.754Z,3.90
2023-05-22T03:37:19.772Z,4.60
2023-05-22T03:39:47.337Z,5.00
2023-05-22T03:42:32.297Z,3.90
2023-05-22T03:44:59.798Z,4.10
2023-05-22T03:47:26.748Z,3.90
2023-05-22T03:49:53.787Z,4.40
2023-05-22T03:52:22.215Z,3.70
2023-05-22T03:54:49.147Z,3.40
2023-05-22T03:57:16.577Z,2.90
2023-05-22T03:59:43.482Z,2.90
2023-05-22T04:02:13.304Z,3.00
2023-05-22T04:04:40.332Z,2.70
2023-05-22T04:07:13.412Z,2.70
2023-05-22T04:12:08.327Z,2.90
2023-05-22T04:14:35.227Z,2.90
2023-05-22T04:17:02.223Z,3.30
2023-05-22T04:19:30.155Z,2.80
2023-05-22T04:21:58.382Z,3.00
2023-05-22T04:24:25.556Z,3.00
2023-05-22T04:26:52.852Z,3.40
2023-05-22T04:29:19.764Z,4.00
2023-05-22T04:31:47.796Z,3.90
2023-05-22T04:34:15.832Z,3.10
2023-05-22T04:39:53.708Z,3.40
2023-05-22T04:42:20.738Z,4.00
2023-05-22T04:44:48.482Z,4.00
2023-05-22T04:47:15.519Z,18.00
2023-05-22T04:49:43.817Z,5.60
2023-05-22T04:52:11.817Z,4.50
2023-05-22T04:54:39.184Z,4.90
2023-05-22T04:57:06.468Z,3.90
2023-05-22T04:59:38.146Z,5.80
2023-05-22T05:02:06.125Z,9.50
2023-05-22T05:04:33.534Z,6.10
2023-05-22T05:07:00.500Z,5.10
2023-05-22T05:09:27.459Z,4.10
2023-05-22T05:11:55.093Z,4.40
2023-05-22T05:14:22.064Z,4.20
2023-05-22T05:16:52.004Z,4.20
2023-05-22T05:19:21.636Z,4.20
2023-05-22T05:21:49.766Z,3.70
2023-05-22T05:24:20.376Z,3.90
2023-05-22T05:26:48.311Z,3.90
2023-05-22T05:29:17.903Z,4.50
2023-05-22T05:31:51.844Z,4.40
2023-05-22T05:34:33.166Z,4.40
2023-05-22T05:37:03.408Z,3.90
2023-05-22T05:39:30.868Z,4.40
2023-05-22T05:42:00.285Z,4.40
2023-05-22T05:44:27.786Z,4.90
2023-05-22T05:46:55.078Z,4.60
2023-05-22T05:49:22.474Z,4.20
2023-05-22T05:51:49.938Z,4.00
2023-05-22T05:54:17.730Z,4.60
2023-05-22T05:56:45.876Z,5.00
2023-05-22T05:59:13.345Z,3.90
2023-05-22T06:01:59.350Z,4.10
2023-05-22T06:04:28.464Z,4.40
2023-05-22T06:06:56.283Z,4.00
2023-05-22T06:09:27.450Z,3.30
2023-05-22T06:12:20.634Z,4.10
2023-05-22T06:14:47.796Z,3.70
2023-05-22T06:17:15.654Z,3.90
2023-05-22T06:19:43.832Z,4.40
2023-05-22T06:22:11.553Z,3.90
2023-05-22T06:24:42.162Z,3.40
2023-05-22T06:27:13.783Z,3.00
2023-05-22T06:29:40.692Z,4.00
2023-05-22T06:32:10.966Z,3.50
2023-05-22T06:34:39.947Z,3.50
2023-05-22T06:37:07.289Z,3.00
2023-05-22T06:39:38.552Z,3.00
2023-05-22T06:42:26.369Z,3.10
2023-05-22T06:45:14.687Z,2.90
2023-05-22T06:47:53.589Z,3.30
2023-05-22T06:50:22.295Z,3.10
2023-05-22T06:52:49.498Z,3.30
2023-05-22T06:55:17.508Z,3.00
2023-05-22T06:57:53.473Z,2.70
2023-05-22T07:00:22.118Z,3.30
2023-05-22T07:03:01.357Z,2.60
2023-05-22T07:05:40.856Z,3.00
2023-05-22T07:08:08.768Z,2.90
2023-05-22T07:10:55.729Z,2.60
2023-05-22T07:13:24.566Z,2.80
2023-05-22T07:15:51.433Z,2.50
2023-05-22T07:18:19.237Z,3.10
2023-05-22T07:20:46.283Z,2.30
2023-05-22T07:23:16.021Z,2.50
2023-05-22T07:25:45.196Z,2.60
2023-05-22T07:28:13.269Z,2.30
2023-05-22T07:30:54.013Z,2.70
2023-05-22T07:33:24.621Z,2.60
2023-05-22T07:35:52.340Z,2.30
2023-05-22T07:38:19.868Z,2.30
2023-05-22T07:40:56.624Z,2.10
2023-05-22T07:43:24.398Z,1.90
2023-05-22T07:45:51.757Z,1.70
2023-05-22T07:48:20.799Z,2.50
2023-05-22T07:50:47.964Z,2.20
2023-05-22T07:53:16.593Z,2.00
2023-05-22T07:55:46.566Z,2.30
2023-05-22T07:58:15.650Z,2.00
2023-05-22T08:00:43.101Z,2.00
2023-05-22T08:03:14.007Z,2.40
2023-05-22T08:05:41.574Z,1.80
2023-05-22T08:08:10.574Z,1.50
2023-05-22T08:13:07.800Z,1.80
2023-05-22T08:15:34.797Z,1.80
2023-05-22T08:18:01.923Z,2.20
2023-05-22T08:20:29.224Z,2.00
2023-05-22T08:22:56.860Z,2.30
2023-05-22T08:25:25.091Z,1.60
2023-05-22T08:27:52.349Z,1.60
2023-05-22T08:30:19.777Z,1.60
2023-05-22T08:32:50.012Z,1.60
2023-05-22T08:35:17.325Z,1.60
2023-05-22T08:37:44.747Z,1.60
2023-05-22T08:40:14.744Z,2.20
2023-05-22T08:42:42.341Z,1.70
2023-05-22T08:45:10.022Z,2.10
2023-05-22T08:47:37.386Z,1.80
2023-05-22T08:50:05.465Z,1.80
2023-05-22T08:52:44.435Z,1.60
2023-05-22T08:55:11.558Z,1.80
2023-05-22T08:57:38.707Z,1.60
2023-05-22T09:00:07.943Z,1.80
2023-05-22T09:02:35.006Z,1.70
2023-05-22T09:05:02.286Z,1.90
2023-05-22T09:07:30.085Z,1.60
2023-05-22T09:09:57.263Z,1.80
2023-05-22T09:12:24.246Z,1.40
2023-05-22T09:14:51.893Z,1.20
2023-05-22T09:17:21.147Z,1.70
2023-05-22T09:19:48.097Z,1.60
2023-05-22T09:22:16.823Z,2.20
2023-05-22T09:24:45.076Z,1.70
2023-05-22T09:27:12.124Z,1.90
2023-05-22T09:29:52.696Z,1.60
2023-05-22T09:32:21.494Z,2.00
2023-05-22T09:34:49.457Z,1.50
2023-05-22T09:37:20.544Z,1.80
2023-05-22T09:39:48.930Z,1.70
2023-05-22T09:42:20.016Z,1.50
2023-05-22T09:44:50.216Z,2.00
2023-05-22T09:47:17.852Z,1.90
2023-05-22T09:49:45.434Z,1.60
2023-05-22T09:52:15.726Z,2.00
2023-05-22T09:54:47.933Z,2.90
2023-05-22T09:57:15.753Z,1.60
2023-05-22T09:59:45.525Z,1.70
2023-05-22T10:02:12.899Z,1.90
2023-05-22T10:04:40.353Z,1.30
2023-05-22T10:07:07.394Z,1.70
2023-05-22T10:09:35.751Z,1.70
2023-05-22T10:12:06.108Z,1.70
2023-05-22T10:14:36.073Z,1.50
2023-05-22T10:17:04.862Z,1.50
2023-05-22T10:19:33.230Z,1.70
2023-05-22T10:22:00.582Z,1.80
2023-05-22T10:24:27.666Z,2.00
2023-05-22T10:26:54.710Z,1.90
2023-05-22T10:29:28.632Z,2.10
2023-05-22T10:32:04.572Z,1.90
2023-05-22T10:34:57.750Z,1.70
2023-05-22T10:37:43.675Z,1.80
2023-05-22T10:40:18.255Z,2.10
2023-05-22T10:42:45.373Z,1.80
2023-05-22T10:45:12.702Z,1.90
2023-05-22T10:47:39.803Z,2.10
2023-05-22T10:50:08.459Z,1.70
2023-05-22T10:52:36.206Z,2.50
2023-05-22T10:55:07.851Z,1.50
2023-05-22T10:57:37.321Z,2.10
2023-05-22T11:00:11.829Z,1.70
2023-05-22T11:02:42.739Z,1.30
2023-05-22T11:05:30.668Z,1.90
2023-05-22T11:08:36.061Z,1.60
2023-05-22T11:11:11.301Z,2.90
2023-05-22T11:13:41.462Z,2.10
2023-05-22T11:16:08.927Z,1.90
2023-05-22T11:18:35.824Z,1.60
2023-05-22T11:21:07.841Z,2.00
2023-05-22T11:23:35.398Z,1.80
2023-05-22T11:26:22.538Z,1.60
2023-05-22T11:28:51.851Z,3.00
2023-05-22T11:31:19.149Z,1.90
2023-05-22T11:33:46.383Z,2.20
2023-05-22T11:36:23.208Z,1.90
2023-05-22T11:38:50.227Z,1.80
2023-05-22T11:41:18.617Z,1.90
2023-05-22T11:43:47.982Z,1.70
2023-05-22T11:46:15.323Z,1.80
2023-05-22T11:48:42.859Z,2.00
2023-05-22T11:51:11.984Z,1.90
2023-05-22T11:53:38.947Z,2.20
2023-05-22T11:56:09.169Z,1.80
2023-05-22T11:58:36.649Z,1.70
2023-05-22T12:01:04.184Z,1.70
2023-05-22T12:03:36.245Z,1.60
2023-05-22T12:06:05.978Z,1.70
2023-05-22T12:08:33.438Z,1.80
2023-05-22T12:11:01.223Z,1.40
2023-05-22T12:13:29.387Z,1.90
2023-05-22T12:16:02.986Z,2.00
2023-05-22T12:18:37.337Z,1.60
2023-05-22T12:21:08.088Z,1.40
2023-05-22T12:23:35.620Z,2.00
2023-05-22T12:26:08.601Z,1.60
2023-05-22T12:28:36.142Z,2.00
2023-05-22T12:31:03.749Z,1.90
2023-05-22T12:33:32.356Z,1.50
2023-05-22T12:35:59.953Z,1.80
2023-05-22T12:38:32.518Z,1.50
2023-05-22T12:41:02.324Z,1.90
2023-05-22T12:43:29.756Z,1.90
2023-05-22T12:45:57.323Z,2.20
2023-05-22T12:48:26.118Z,1.60
2023-05-22T12:50:56.864Z,2.40
2023-05-22T12:53:24.335Z,1.90
2023-05-22T12:55:51.758Z,1.70
2023-05-22T12:58:19.302Z,2.00
2023-05-22T13:00:46.854Z,1.50
2023-05-22T13:03:14.298Z,1.90
2023-05-22T13:05:42.209Z,1.80
2023-05-22T13:08:09.897Z,2.00
2023-05-22T13:10:38.584Z,1.90
2023-05-22T13:13:08.757Z,1.80
2023-05-22T13:15:36.371Z,1.90
2023-05-22T13:18:06.295Z,1.50
2023-05-22T13:20:35.269Z,1.90
2023-05-22T13:23:02.699Z,1.70
2023-05-22T13:25:30.166Z,1.90
2023-05-22T13:27:59.072Z,1.70
2023-05-22T13:30:26.594Z,2.00
2023-05-22T13:32:54.265Z,1.90
2023-05-22T13:35:21.757Z,1.80
2023-05-22T13:37:52.836Z,1.80
2023-05-22T13:40:20.240Z,1.70
2023-05-22T13:42:47.709Z,2.00
2023-05-22T13:45:15.861Z,2.20
2023-05-22T13:47:43.635Z,2.60
2023-05-22T13:50:11.444Z,1.70
2023-05-22T13:52:39.126Z,1.90
2023-05-22T13:55:06.890Z,1.60
2023-05-22T13:57:34.640Z,1.70
2023-05-22T14:00:07.909Z,1.80
2023-05-22T14:02:35.668Z,1.80
2023-05-22T14:05:03.268Z,2.10
2023-05-22T14:07:30.805Z,1.60
2023-05-22T14:09:59.757Z,2.10
2023-05-22T14:12:28.718Z,1.90
2023-05-22T14:14:56.266Z,1.80
2023-05-22T14:17:23.945Z,1.90
2023-05-22T14:19:51.819Z,2.20
2023-05-22T14:22:19.204Z,2.20
2023-05-22T14:24:46.575Z,1.50
2023-05-22T14:27:13.957Z,1.90
2023-05-22T14:29:41.333Z,2.00
2023-05-22T14:32:08.695Z,2.10
2023-05-22T14:34:36.106Z,2.10
2023-05-22T14:37:03.569Z,1.90
2023-05-22T14:39:31.150Z,3.00
2023-05-22T14:41:58.560Z,2.00
2023-05-22T14:44:25.969Z,2.00
2023-05-22T14:46:54.695Z,1.50
2023-05-22T14:49:22.185Z,1.70
2023-05-22T14:51:49.616Z,2.20
2023-05-22T14:54:19.196Z,2.30
2023-05-22T14:56:46.700Z,2.00
2023-05-22T14:59:14.495Z,1.90
2023-05-22T15:01:41.875Z,2.00
2023-05-22T15:04:09.453Z,1.50
2023-05-22T15:06:36.952Z,2.10
2023-05-22T15:09:04.451Z,1.90
2023-05-22T15:11:32.458Z,1.80
2023-05-22T15:13:59.889Z,1.80
2023-05-22T15:16:27.938Z,1.80
2023-05-22T15:18:55.511Z,1.80
2023-05-22T15:21:23.490Z,2.00
2023-05-22T15:23:51.372Z,2.00
2023-05-22T15:26:19.988Z,2.90
2023-05-22T15:28:48.959Z,2.60
2023-05-22T15:31:16.474Z,2.00
2023-05-22T15:33:43.934Z,2.00
2023-05-22T15:36:11.392Z,2.20
2023-05-22T15:38:38.879Z,2.10
2023-05-22T15:41:06.952Z,2.20
2023-05-22T15:43:37.196Z,1.90
2023-05-22T15:46:04.694Z,2.20
2023-05-22T15:48:35.062Z,2.10
2023-05-22T15:51:02.636Z,1.70
2023-05-22T15:53:30.195Z,1.80
2023-05-22T15:55:57.671Z,1.80
2023-05-22T15:58:25.155Z,2.20
2023-05-22T16:00:52.827Z,1.90
2023-05-22T16:03:20.415Z,1.80
2023-05-22T16:05:48.010Z,1.80
2023-05-22T16:08:17.790Z,1.50
2023-05-22T16:10:47.191Z,1.40
2023-05-22T16:13:15.110Z,1.90
2023-05-22T16:15:43.466Z,1.60
2023-05-22T16:18:12.267Z,2.80
2023-05-22T16:20:43.184Z,1.70
2023-05-22T16:23:10.657Z,1.90
2023-05-22T16:25:38.498Z,2.10
2023-05-22T16:28:11.164Z,1.80
2023-05-22T16:30:40.159Z,2.10
2023-05-22T16:33:08.901Z,1.80
2023-05-22T16:35:37.158Z,1.70
2023-05-22T16:38:06.966Z,1.70
2023-05-22T16:40:34.464Z,1.50
2023-05-22T16:43:02.065Z,1.80
2023-05-22T16:45:32.081Z,2.70
2023-05-22T16:47:59.578Z,2.40
2023-05-22T16:50:27.436Z,2.40
2023-05-22T16:52:58.055Z,2.50
2023-05-22T16:57:16.599Z,2.20
2023-05-22T16:59:44.762Z,2.80
2023-05-22T17:02:14.349Z,2.80
2023-05-22T17:04:42.502Z,2.90
2023-05-22T17:07:10.004Z,3.80
2023-05-22T17:09:38.327Z,3.30
2023-05-22T17:12:07.416Z,3.40
2023-05-22T17:14:35.079Z,3.10
2023-05-22T17:17:02.582Z,2.90
2023-05-22T17:19:30.710Z,3.40
2023-05-22T17:21:58.297Z,2.90
2023-05-22T17:24:27.833Z,2.80
2023-05-22T17:26:55.642Z,3.00
2023-05-22T17:29:23.288Z,5.60
2023-05-22T17:31:50.787Z,7.50
2023-05-22T17:34:18.430Z,7.50
2023-05-22T17:36:45.976Z,7.20
2023-05-22T17:39:13.575Z,7.90
2023-05-22T17:41:41.300Z,7.90
2023-05-22T17:44:11.697Z,7.50
2023-05-22T17:49:09.539Z,6.60
2023-05-22T17:51:36.988Z,7.30
2023-05-22T17:54:06.114Z,6.60
2023-05-22T17:56:33.588Z,7.90
2023-05-22T17:59:01.576Z,7.60
2023-05-22T18:01:29.629Z,8.80
2023-05-22T18:03:57.381Z,9.40
2023-05-22T18:06:24.915Z,9.00
2023-05-22T18:08:52.385Z,9.00
2023-05-22T18:11:20.331Z,10.20
2023-05-22T18:13:47.800Z,11.30
2023-05-22T18:16:18.513Z,11.30
2023-05-22T18:18:51.169Z,11.60
2023-05-22T18:21:18.892Z,10.60
2023-05-22T18:23:46.374Z,10.00
2023-05-22T18:26:16.331Z,10.80
2023-05-22T18:28:48.345Z,10.80
2023-05-22T18:31:18.318Z,9.80
2023-05-22T18:33:49.333Z,13.30
2023-05-22T18:36:18.444Z,12.30
2023-05-22T18:38:46.253Z,11.00
2023-05-22T18:41:16.455Z,10.50
2023-05-22T18:43:43.990Z,11.60
2023-05-22T18:46:11.650Z,9.70
2023-05-22T18:48:39.245Z,9.50
2023-05-22T18:51:06.929Z,11.60
2023-05-22T18:53:51.701Z,11.70
2023-05-22T18:56:21.558Z,16.60
2023-05-22T18:58:51.944Z,21.00
2023-05-22T19:01:24.310Z,20.10
2023-05-22T19:04:00.818Z,23.30
2023-05-22T19:06:29.055Z,18.70
2023-05-22T19:08:56.518Z,15.50
2023-05-22T19:11:24.169Z,14.10
2023-05-22T19:13:51.805Z,13.50
2023-05-22T19:16:19.255Z,14.60
2023-05-22T19:19:23.954Z,13.20
2023-05-22T19:21:51.950Z,12.80
2023-05-22T19:28:31.769Z,13.20
2023-05-22T19:31:00.235Z,15.10
2023-05-22T19:33:27.769Z,13.50
2023-05-22T19:35:55.187Z,12.40
2023-05-22T19:38:23.087Z,14.40
2023-05-22T19:40:50.509Z,13.20
2023-05-22T19:43:20.266Z,12.50
2023-05-22T19:45:47.901Z,12.10
2023-05-22T19:48:15.410Z,13.00
2023-05-22T19:50:45.139Z,14.30
2023-05-22T19:53:12.955Z,12.90
2023-05-22T19:55:43.726Z,13.00
2023-05-22T19:58:11.796Z,13.20
2023-05-22T20:00:39.487Z,13.00
2023-05-22T20:03:08.647Z,14.60
2023-05-22T20:05:36.329Z,16.10
2023-05-22T20:08:03.858Z,17.70
2023-05-22T20:10:33.318Z,17.70
2023-05-22T20:13:01.872Z,19.20
2023-05-22T20:15:30.626Z,19.70
2023-05-22T20:17:58.624Z,20.90
2023-05-22T20:20:34.367Z,24.80
2023-05-22T20:23:01.820Z,25.00
2023-05-22T20:25:34.233Z,22.50
2023-05-22T20:28:03.741Z,18.90
2023-05-22T20:30:31.512Z,17.90
2023-05-22T20:32:59.102Z,15.40
2023-05-22T20:35:28.038Z,15.60
2023-05-22T20:37:58.490Z,12.90
2023-05-22T20:40:26.684Z,11.40
2023-05-22T20:42:58.398Z,14.90
2023-05-22T20:45:30.841Z,13.30
2023-05-22T20:47:58.626Z,12.30
2023-05-22T20:50:27.872Z,10.30
2023-05-22T20:52:55.364Z,10.20
2023-05-22T20:55:26.080Z,10.00
2023-05-22T20:58:00.036Z,11.80
2023-05-22T21:00:28.684Z,11.70
2023-05-22T21:03:03.370Z,10.40
2023-05-22T21:05:30.915Z,12.10
2023-05-22T21:07:58.377Z,14.40
2023-05-22T21:10:26.389Z,12.40
2023-05-22T21:12:53.914Z,11.00
2023-05-22T21:15:21.586Z,11.60
2023-05-22T21:18:02.674Z,11.00
2023-05-22T21:20:30.357Z,10.50
2023-05-22T21:23:03.690Z,9.70
2023-05-22T21:25:36.572Z,9.20
2023-05-22T21:28:08.197Z,7.90
2023-05-22T21:30:35.659Z,9.20
2023-05-22T21:33:05.850Z,8.50
2023-05-22T21:35:33.349Z,7.90
2023-05-22T21:38:01.071Z,7.60
2023-05-22T21:40:28.492Z,7.90
2023-05-22T21:42:56.447Z,7.60
2023-05-22T21:45:23.902Z,8.30
2023-05-22T21:47:51.572Z,8.20
2023-05-22T21:50:19.058Z,7.30
2023-05-22T21:52:46.478Z,8.10
2023-05-22T21:55:13.965Z,6.90
2023-05-22T21:57:41.402Z,6.90
2023-05-22T22:00:09.359Z,7.30
2023-05-22T22:02:36.897Z,7.10
2023-05-22T22:05:05.630Z,7.90
2023-05-22T22:07:33.075Z,7.30
2023-05-22T22:10:00.826Z,7.10
2023-05-22T22:12:31.313Z,7.10
2023-05-22T22:15:02.499Z,6.90
2023-05-22T22:17:35.475Z,7.10
2023-05-22T22:20:05.826Z,6.90
2023-05-22T22:22:33.732Z,6.30
2023-05-22T22:25:01.189Z,6.30
2023-05-22T22:27:28.789Z,6.40
2023-05-22T22:30:03.655Z,6.30
2023-05-22T22:32:34.060Z,6.20
2023-05-22T22:35:04.118Z,6.10
2023-05-22T22:37:35.104Z,5.50
2023-05-22T22:40:14.957Z,4.90
2023-05-22T22:42:42.592Z,5.30
2023-05-22T22:45:10.525Z,5.60
2023-05-22T22:47:40.399Z,5.70
2023-05-22T22:50:10.092Z,6.30
2023-05-22T22:52:37.973Z,5.90
2023-05-22T22:55:06.771Z,5.20
2023-05-22T22:57:37.700Z,5.30
2023-05-22T23:00:05.878Z,4.70
2023-05-22T23:02:33.375Z,4.80
2023-05-22T23:05:06.893Z,5.30
2023-05-22T23:07:34.584Z,5.20
2023-05-22T23:10:02.761Z,5.90
2023-05-22T23:12:36.264Z,6.20
2023-05-22T23:15:04.277Z,5.60
2023-05-22T23:17:31.722Z,5.60
2023-05-22T23:19:59.199Z,6.10
2023-05-22T23:22:26.631Z,6.10
2023-05-22T23:24:54.090Z,6.90
2023-05-22T23:27:22.029Z,7.60
2023-05-22T23:29:49.549Z,8.80
2023-05-22T23:32:18.273Z,7.80
2023-05-22T23:34:45.721Z,7.60
2023-05-22T23:37:13.175Z,7.00
2023-05-22T23:39:40.992Z,6.50
2023-05-22T23:42:09.890Z,6.70
2023-05-22T23:44:37.420Z,6.60
2023-05-22T23:47:09.900Z,5.70
2023-05-22T23:49:37.394Z,5.70
2023-05-22T23:52:06.911Z,5.20
2023-05-22T23:54:39.196Z,5.90
2023-05-22T23:57:06.731Z,5.40
2023-05-22T23:59:35.488Z,5.50
